sensor_id;sensor_type;location;lat;lon;timestamp;temperature;humidity
11577;DHT22;5844;51.496;6.788;2022-12-05T00:01:22;3.70;99.90
11577;DHT22;5844;51.496;6.788;2022-12-05T00:03:50;3.70;99.90
11577;DHT22;5844;51.496;6.788;2022-12-05T00:06:16;3.60;99.90
11577;DHT22;5844;51.496;6.788;2022-12-05T00:08:43;3.70;99.90
11577;DHT22;5844;51.496;6.788;2022-12-05T00:11:20;3.60;99.90
11577;DHT22;5844;51.496;6.788;2022-12-05T00:13:47;3.60;99.90
11577;DHT22;5844;51.496;6.788;2022-12-05T00:16:15;3.70;99.90
11577;DHT22;5844;51.496;6.788;2022-12-05T00:18:41;3.70;99.90
11577;DHT22;5844;51.496;6.788;2022-12-05T00:21:21;3.70;99.90
11577;DHT22;5844;51.496;6.788;2022-12-05T00:23:47;3.70;99.90
11577;DHT22;5844;51.496;6.788;2022-12-05T00:26:13;3.70;99.90
11577;DHT22;5844;51.496;6.788;2022-12-05T00:28:39;3.70;99.90
11577;DHT22;5844;51.496;6.788;2022-12-05T00:31:08;3.70;99.90
11577;DHT22;5844;51.496;6.788;2022-12-05T00:33:34;3.70;99.90
11577;DHT22;5844;51.496;6.788;2022-12-05T00:36:05;3.70;99.90
11577;DHT22;5844;51.496;6.788;2022-12-05T00:38:31;3.70;99.90
11577;DHT22;5844;51.496;6.788;2022-12-05T00:41:08;3.70;99.90
11577;DHT22;5844;51.496;6.788;2022-12-05T00:43:35;3.70;99.90
11577;DHT22;5844;51.496;6.788;2022-12-05T00:46:04;3.70;99.90
11577;DHT22;5844;51.496;6.788;2022-12-05T00:48:30;3.80;99.90
11577;DHT22;5844;51.496;6.788;2022-12-05T00:51:04;3.80;99.90
11577;DHT22;5844;51.496;6.788;2022-12-05T00:53:30;3.80;99.90
11577;DHT22;5844;51.496;6.788;2022-12-05T00:56:00;3.80;99.90
11577;DHT22;5844;51.496;6.788;2022-12-05T00:58:26;3.70;99.90
11577;DHT22;5844;51.496;6.788;2022-12-05T01:00:51;4.10;99.90
11577;DHT22;5844;51.496;6.788;2022-12-05T01:03:17;3.70;99.90
11577;DHT22;5844;51.496;6.788;2022-12-05T01:05:43;3.70;99.90
11577;DHT22;5844;51.496;6.788;2022-12-05T01:08:08;3.70;99.90
11577;DHT22;5844;51.496;6.788;2022-12-05T01:10:34;3.70;99.90
11577;DHT22;5844;51.496;6.788;2022-12-05T01:12:59;3.80;99.90
11577;DHT22;5844;51.496;6.788;2022-12-05T01:15:25;3.80;99.90
11577;DHT22;5844;51.496;6.788;2022-12-05T01:17:51;3.70;99.90
11577;DHT22;5844;51.496;6.788;2022-12-05T01:20:16;3.70;99.90
11577;DHT22;5844;51.496;6.788;2022-12-05T01:22:42;3.70;99.90
11577;DHT22;5844;51.496;6.788;2022-12-05T01:25:08;4.50;99.90
11577;DHT22;5844;51.496;6.788;2022-12-05T01:27:33;3.70;99.90
11577;DHT22;5844;51.496;6.788;2022-12-05T01:29:59;3.80;99.90
11577;DHT22;5844;51.496;6.788;2022-12-05T01:32:25;3.80;99.90
11577;DHT22;5844;51.496;6.788;2022-12-05T01:34:50;3.70;99.90
11577;DHT22;5844;51.496;6.788;2022-12-05T01:37:16;3.80;99.90
11577;DHT22;5844;51.496;6.788;2022-12-05T01:39:41;3.80;99.90
11577;DHT22;5844;51.496;6.788;2022-12-05T01:42:07;3.80;99.90
11577;DHT22;5844;51.496;6.788;2022-12-05T01:46:58;3.70;99.90
11577;DHT22;5844;51.496;6.788;2022-12-05T01:49:30;3.70;99.90
11577;DHT22;5844;51.496;6.788;2022-12-05T01:52:01;1.60;99.90
11577;DHT22;5844;51.496;6.788;2022-12-05T01:54:28;3.80;99.90
11577;DHT22;5844;51.496;6.788;2022-12-05T01:57:01;3.80;99.90
11577;DHT22;5844;51.496;6.788;2022-12-05T01:59:31;3.90;99.90
11577;DHT22;5844;51.496;6.788;2022-12-05T02:01:58;3.80;99.90
11577;DHT22;5844;51.496;6.788;2022-12-05T02:04:24;3.80;99.90
11577;DHT22;5844;51.496;6.788;2022-12-05T02:06:52;3.80;99.90
11577;DHT22;5844;51.496;6.788;2022-12-05T02:09:19;3.80;99.90
11577;DHT22;5844;51.496;6.788;2022-12-05T02:11:55;3.90;99.90
11577;DHT22;5844;51.496;6.788;2022-12-05T02:14:27;3.80;99.90
11577;DHT22;5844;51.496;6.788;2022-12-05T02:36:22;3.90;99.90
11577;DHT22;5844;51.496;6.788;2022-12-05T02:41:54;3.80;99.90
11577;DHT22;5844;51.496;6.788;2022-12-05T02:44:41;3.80;99.90
11577;DHT22;5844;51.496;6.788;2022-12-05T02:47:08;3.80;99.90
11577;DHT22;5844;51.496;6.788;2022-12-05T02:49:38;2.80;99.90
11577;DHT22;5844;51.496;6.788;2022-12-05T02:52:12;3.80;99.90
11577;DHT22;5844;51.496;6.788;2022-12-05T02:54:41;3.90;99.90
11577;DHT22;5844;51.496;6.788;2022-12-05T02:57:09;3.80;99.90
11577;DHT22;5844;51.496;6.788;2022-12-05T02:59:36;3.80;99.90
11577;DHT22;5844;51.496;6.788;2022-12-05T03:02:02;3.90;99.90
11577;DHT22;5844;51.496;6.788;2022-12-05T03:04:29;3.80;99.90
11577;DHT22;5844;51.496;6.788;2022-12-05T03:07:07;3.80;99.90
11577;DHT22;5844;51.496;6.788;2022-12-05T03:09:42;3.90;99.90
11577;DHT22;5844;51.496;6.788;2022-12-05T03:14:43;3.80;99.90
11577;DHT22;5844;51.496;6.788;2022-12-05T03:17:14;3.90;99.90
11577;DHT22;5844;51.496;6.788;2022-12-05T03:20:02;3.90;99.90
11577;DHT22;5844;51.496;6.788;2022-12-05T03:22:52;3.90;99.90
11577;DHT22;5844;51.496;6.788;2022-12-05T03:25:33;3.80;99.90
11577;DHT22;5844;51.496;6.788;2022-12-05T03:31:00;3.90;99.90
11577;DHT22;5844;51.496;6.788;2022-12-05T03:33:28;4.10;99.90
11577;DHT22;5844;51.496;6.788;2022-12-05T03:36:03;3.90;99.90
11577;DHT22;5844;51.496;6.788;2022-12-05T03:43:46;3.80;99.90
11577;DHT22;5844;51.496;6.788;2022-12-05T03:46:33;3.80;99.90
11577;DHT22;5844;51.496;6.788;2022-12-05T03:49:25;3.80;99.90
11577;DHT22;5844;51.496;6.788;2022-12-05T03:52:08;3.80;99.90
11577;DHT22;5844;51.496;6.788;2022-12-05T03:54:48;3.80;99.90
11577;DHT22;5844;51.496;6.788;2022-12-05T03:59:55;3.80;99.90
11577;DHT22;5844;51.496;6.788;2022-12-05T04:05:03;3.80;99.90
11577;DHT22;5844;51.496;6.788;2022-12-05T04:07:32;3.80;99.90
11577;DHT22;5844;51.496;6.788;2022-12-05T04:10:04;3.80;99.90
11577;DHT22;5844;51.496;6.788;2022-12-05T04:12:34;3.70;99.90
11577;DHT22;5844;51.496;6.788;2022-12-05T04:15:10;3.80;99.90
11577;DHT22;5844;51.496;6.788;2022-12-05T04:17:46;3.70;99.90
11577;DHT22;5844;51.496;6.788;2022-12-05T04:23:03;3.60;99.90
11577;DHT22;5844;51.496;6.788;2022-12-05T04:25:38;3.60;99.90
11577;DHT22;5844;51.496;6.788;2022-12-05T04:28:31;3.60;99.90
11577;DHT22;5844;51.496;6.788;2022-12-05T04:31:10;3.60;99.90
11577;DHT22;5844;51.496;6.788;2022-12-05T04:33:42;3.50;99.90
11577;DHT22;5844;51.496;6.788;2022-12-05T04:36:36;3.60;99.90
11577;DHT22;5844;51.496;6.788;2022-12-05T04:39:54;3.50;99.90
11577;DHT22;5844;51.496;6.788;2022-12-05T04:42:19;3.50;99.90
11577;DHT22;5844;51.496;6.788;2022-12-05T04:44:50;3.50;99.90
11577;DHT22;5844;51.496;6.788;2022-12-05T04:47:19;3.60;99.90
11577;DHT22;5844;51.496;6.788;2022-12-05T04:49:45;3.70;99.90
11577;DHT22;5844;51.496;6.788;2022-12-05T04:52:12;3.60;99.90
11577;DHT22;5844;51.496;6.788;2022-12-05T04:54:56;3.60;99.90
11577;DHT22;5844;51.496;6.788;2022-12-05T04:57:28;3.60;99.90
11577;DHT22;5844;51.496;6.788;2022-12-05T04:59:55;3.60;99.90
11577;DHT22;5844;51.496;6.788;2022-12-05T05:02:29;3.60;99.90
11577;DHT22;5844;51.496;6.788;2022-12-05T05:04:57;3.70;99.90
11577;DHT22;5844;51.496;6.788;2022-12-05T05:07:25;3.60;99.90
11577;DHT22;5844;51.496;6.788;2022-12-05T05:09:51;3.60;99.90
11577;DHT22;5844;51.496;6.788;2022-12-05T05:12:16;3.60;99.90
11577;DHT22;5844;51.496;6.788;2022-12-05T05:14:42;3.80;99.90
11577;DHT22;5844;51.496;6.788;2022-12-05T05:17:08;3.60;99.90
11577;DHT22;5844;51.496;6.788;2022-12-05T05:19:33;3.50;99.90
11577;DHT22;5844;51.496;6.788;2022-12-05T05:21:59;3.60;99.90
11577;DHT22;5844;51.496;6.788;2022-12-05T05:24:24;3.60;99.90
11577;DHT22;5844;51.496;6.788;2022-12-05T05:26:51;3.60;99.90
11577;DHT22;5844;51.496;6.788;2022-12-05T05:29:17;3.80;99.90
11577;DHT22;5844;51.496;6.788;2022-12-05T05:31:43;3.60;99.90
11577;DHT22;5844;51.496;6.788;2022-12-05T05:34:10;3.50;99.90
11577;DHT22;5844;51.496;6.788;2022-12-05T05:36:36;3.60;99.90
11577;DHT22;5844;51.496;6.788;2022-12-05T05:39:04;3.60;99.90
11577;DHT22;5844;51.496;6.788;2022-12-05T05:41:33;3.60;99.90
11577;DHT22;5844;51.496;6.788;2022-12-05T05:43:59;3.60;99.90
11577;DHT22;5844;51.496;6.788;2022-12-05T05:46:28;3.60;99.90
11577;DHT22;5844;51.496;6.788;2022-12-05T05:48:54;3.60;99.90
11577;DHT22;5844;51.496;6.788;2022-12-05T05:51:20;3.60;99.90
11577;DHT22;5844;51.496;6.788;2022-12-05T05:53:46;3.60;99.90
11577;DHT22;5844;51.496;6.788;2022-12-05T05:56:15;3.60;99.90
11577;DHT22;5844;51.496;6.788;2022-12-05T05:58:41;3.60;99.90
11577;DHT22;5844;51.496;6.788;2022-12-05T06:01:17;3.60;99.90
11577;DHT22;5844;51.496;6.788;2022-12-05T06:03:44;3.60;99.90
11577;DHT22;5844;51.496;6.788;2022-12-05T06:06:12;3.60;99.90
11577;DHT22;5844;51.496;6.788;2022-12-05T06:08:42;3.60;99.90
11577;DHT22;5844;51.496;6.788;2022-12-05T06:11:26;3.60;99.90
11577;DHT22;5844;51.496;6.788;2022-12-05T06:13:57;3.60;99.90
11577;DHT22;5844;51.496;6.788;2022-12-05T06:16:25;3.70;99.90
11577;DHT22;5844;51.496;6.788;2022-12-05T06:18:51;3.60;99.90
11577;DHT22;5844;51.496;6.788;2022-12-05T06:21:17;3.60;99.90
11577;DHT22;5844;51.496;6.788;2022-12-05T06:23:43;3.60;99.90
11577;DHT22;5844;51.496;6.788;2022-12-05T06:26:11;3.60;99.90
11577;DHT22;5844;51.496;6.788;2022-12-05T06:28:37;3.60;99.90
11577;DHT22;5844;51.496;6.788;2022-12-05T06:31:23;3.60;99.90
11577;DHT22;5844;51.496;6.788;2022-12-05T06:33:52;3.90;99.90
11577;DHT22;5844;51.496;6.788;2022-12-05T06:36:20;3.70;99.90
11577;DHT22;5844;51.496;6.788;2022-12-05T06:38:46;3.60;99.90
11577;DHT22;5844;51.496;6.788;2022-12-05T06:41:16;3.60;99.90
11577;DHT22;5844;51.496;6.788;2022-12-05T06:43:42;3.60;99.90
11577;DHT22;5844;51.496;6.788;2022-12-05T06:46:10;3.50;99.90
11577;DHT22;5844;51.496;6.788;2022-12-05T06:48:37;3.60;99.90
11577;DHT22;5844;51.496;6.788;2022-12-05T06:51:03;3.50;99.90
11577;DHT22;5844;51.496;6.788;2022-12-05T06:53:29;3.60;99.90
11577;DHT22;5844;51.496;6.788;2022-12-05T06:56:03;3.60;99.90
11577;DHT22;5844;51.496;6.788;2022-12-05T06:58:30;3.60;99.90
11577;DHT22;5844;51.496;6.788;2022-12-05T07:00:56;3.50;99.90
11577;DHT22;5844;51.496;6.788;2022-12-05T07:03:40;3.80;99.90
11577;DHT22;5844;51.496;6.788;2022-12-05T07:06:08;3.50;99.90
11577;DHT22;5844;51.496;6.788;2022-12-05T07:08:34;3.60;99.90
11577;DHT22;5844;51.496;6.788;2022-12-05T07:11:01;3.50;99.90
11577;DHT22;5844;51.496;6.788;2022-12-05T07:13:28;3.50;99.90
11577;DHT22;5844;51.496;6.788;2022-12-05T07:15:54;3.50;99.90
11577;DHT22;5844;51.496;6.788;2022-12-05T07:18:19;3.50;99.90
11577;DHT22;5844;51.496;6.788;2022-12-05T07:20:55;3.50;99.90
11577;DHT22;5844;51.496;6.788;2022-12-05T07:23:21;3.50;99.90
11577;DHT22;5844;51.496;6.788;2022-12-05T07:25:50;3.50;99.90
11577;DHT22;5844;51.496;6.788;2022-12-05T07:28:16;3.50;99.90
11577;DHT22;5844;51.496;6.788;2022-12-05T07:30:41;3.50;99.90
11577;DHT22;5844;51.496;6.788;2022-12-05T07:33:07;5.10;99.90
11577;DHT22;5844;51.496;6.788;2022-12-05T07:35:32;3.50;99.90
11577;DHT22;5844;51.496;6.788;2022-12-05T07:37:58;3.50;99.90
11577;DHT22;5844;51.496;6.788;2022-12-05T07:40:24;3.50;99.90
11577;DHT22;5844;51.496;6.788;2022-12-05T07:42:50;3.40;99.90
11577;DHT22;5844;51.496;6.788;2022-12-05T07:45:18;3.50;99.90
11577;DHT22;5844;51.496;6.788;2022-12-05T07:47:44;3.50;99.90
11577;DHT22;5844;51.496;6.788;2022-12-05T07:50:09;3.40;99.90
11577;DHT22;5844;51.496;6.788;2022-12-05T07:52:35;3.40;99.90
11577;DHT22;5844;51.496;6.788;2022-12-05T07:55:01;3.30;99.90
11577;DHT22;5844;51.496;6.788;2022-12-05T07:57:29;3.20;99.90
11577;DHT22;5844;51.496;6.788;2022-12-05T07:59:54;3.10;99.90
11577;DHT22;5844;51.496;6.788;2022-12-05T08:02:20;2.90;99.90
11577;DHT22;5844;51.496;6.788;2022-12-05T08:04:46;2.80;99.90
11577;DHT22;5844;51.496;6.788;2022-12-05T08:07:11;2.80;99.90
11577;DHT22;5844;51.496;6.788;2022-12-05T08:09:37;2.70;99.90
11577;DHT22;5844;51.496;6.788;2022-12-05T08:12:03;2.60;99.90
11577;DHT22;5844;51.496;6.788;2022-12-05T08:14:28;2.50;99.90
11577;DHT22;5844;51.496;6.788;2022-12-05T08:16:54;2.50;99.90
11577;DHT22;5844;51.496;6.788;2022-12-05T08:19:20;2.50;99.90
11577;DHT22;5844;51.496;6.788;2022-12-05T08:21:45;2.40;99.90
11577;DHT22;5844;51.496;6.788;2022-12-05T08:24:12;2.30;99.90
11577;DHT22;5844;51.496;6.788;2022-12-05T08:26:38;2.30;99.90
11577;DHT22;5844;51.496;6.788;2022-12-05T08:29:11;2.30;99.90
11577;DHT22;5844;51.496;6.788;2022-12-05T08:31:43;2.20;99.90
11577;DHT22;5844;51.496;6.788;2022-12-05T08:34:12;2.30;99.90
11577;DHT22;5844;51.496;6.788;2022-12-05T08:36:38;2.30;99.90
11577;DHT22;5844;51.496;6.788;2022-12-05T08:39:05;2.30;99.90
11577;DHT22;5844;51.496;6.788;2022-12-05T08:41:32;2.30;99.90
11577;DHT22;5844;51.496;6.788;2022-12-05T08:43:59;2.30;99.90
11577;DHT22;5844;51.496;6.788;2022-12-05T08:46:31;2.40;99.90
11577;DHT22;5844;51.496;6.788;2022-12-05T08:48:57;2.30;99.90
11577;DHT22;5844;51.496;6.788;2022-12-05T08:51:22;2.40;99.90
11577;DHT22;5844;51.496;6.788;2022-12-05T08:53:48;2.40;99.90
11577;DHT22;5844;51.496;6.788;2022-12-05T08:56:14;2.50;99.90
11577;DHT22;5844;51.496;6.788;2022-12-05T08:58:40;2.50;99.90
11577;DHT22;5844;51.496;6.788;2022-12-05T09:01:06;2.50;99.90
11577;DHT22;5844;51.496;6.788;2022-12-05T09:03:33;2.50;99.90
11577;DHT22;5844;51.496;6.788;2022-12-05T09:06:12;2.50;99.90
11577;DHT22;5844;51.496;6.788;2022-12-05T09:08:39;2.50;99.90
11577;DHT22;5844;51.496;6.788;2022-12-05T09:11:11;2.60;99.90
11577;DHT22;5844;51.496;6.788;2022-12-05T09:13:39;2.70;99.90
11577;DHT22;5844;51.496;6.788;2022-12-05T09:16:13;2.70;99.90
11577;DHT22;5844;51.496;6.788;2022-12-05T09:18:39;3.60;99.90
11577;DHT22;5844;51.496;6.788;2022-12-05T09:21:10;2.90;99.90
11577;DHT22;5844;51.496;6.788;2022-12-05T09:23:36;3.00;99.90
11577;DHT22;5844;51.496;6.788;2022-12-05T09:26:04;3.00;99.90
11577;DHT22;5844;51.496;6.788;2022-12-05T09:28:31;3.00;99.90
11577;DHT22;5844;51.496;6.788;2022-12-05T09:31:02;3.10;99.90
11577;DHT22;5844;51.496;6.788;2022-12-05T09:33:30;3.00;99.90
11577;DHT22;5844;51.496;6.788;2022-12-05T09:35:56;3.10;99.90
11577;DHT22;5844;51.496;6.788;2022-12-05T09:38:22;3.10;99.90
11577;DHT22;5844;51.496;6.788;2022-12-05T09:41:17;3.10;99.90
11577;DHT22;5844;51.496;6.788;2022-12-05T09:43:52;3.10;99.90
11577;DHT22;5844;51.496;6.788;2022-12-05T09:49:12;3.00;99.90
11577;DHT22;5844;51.496;6.788;2022-12-05T09:51:41;3.10;99.90
11577;DHT22;5844;51.496;6.788;2022-12-05T09:54:10;3.10;99.90
11577;DHT22;5844;51.496;6.788;2022-12-05T09:56:37;3.10;99.90
11577;DHT22;5844;51.496;6.788;2022-12-05T09:59:03;3.20;99.90
11577;DHT22;5844;51.496;6.788;2022-12-05T10:01:40;3.40;99.90
11577;DHT22;5844;51.496;6.788;2022-12-05T10:15:22;3.60;99.90
11577;DHT22;5844;51.496;6.788;2022-12-05T10:20:37;3.80;99.90
11577;DHT22;5844;51.496;6.788;2022-12-05T10:23:17;3.80;99.90
11577;DHT22;5844;51.496;6.788;2022-12-05T10:25:44;3.80;99.90
11577;DHT22;5844;51.496;6.788;2022-12-05T10:28:56;3.80;99.90
11577;DHT22;5844;51.496;6.788;2022-12-05T10:31:29;3.80;99.90
11577;DHT22;5844;51.496;6.788;2022-12-05T10:34:27;3.90;99.90
11577;DHT22;5844;51.496;6.788;2022-12-05T10:39:38;3.70;99.90
11577;DHT22;5844;51.496;6.788;2022-12-05T10:42:05;3.70;99.90
11577;DHT22;5844;51.496;6.788;2022-12-05T10:44:37;3.70;99.90
11577;DHT22;5844;51.496;6.788;2022-12-05T10:47:03;3.60;99.90
11577;DHT22;5844;51.496;6.788;2022-12-05T10:49:30;3.60;99.90
11577;DHT22;5844;51.496;6.788;2022-12-05T10:51:57;3.60;99.90
11577;DHT22;5844;51.496;6.788;2022-12-05T10:54:27;3.60;99.90
11577;DHT22;5844;51.496;6.788;2022-12-05T10:56:54;3.50;99.90
11577;DHT22;5844;51.496;6.788;2022-12-05T10:59:25;3.40;99.90
11577;DHT22;5844;51.496;6.788;2022-12-05T11:01:56;3.40;99.90
11577;DHT22;5844;51.496;6.788;2022-12-05T11:04:41;3.40;99.90
11577;DHT22;5844;51.496;6.788;2022-12-05T11:07:33;3.50;99.90
11577;DHT22;5844;51.496;6.788;2022-12-05T11:10:02;3.40;99.90
11577;DHT22;5844;51.496;6.788;2022-12-05T11:12:38;3.50;99.90
11577;DHT22;5844;51.496;6.788;2022-12-05T11:17:47;3.50;99.90
11577;DHT22;5844;51.496;6.788;2022-12-05T11:22:49;3.60;99.90
11577;DHT22;5844;51.496;6.788;2022-12-05T11:25:32;3.50;99.90
11577;DHT22;5844;51.496;6.788;2022-12-05T11:33:33;3.70;99.90
11577;DHT22;5844;51.496;6.788;2022-12-05T11:36:18;3.70;99.90
11577;DHT22;5844;51.496;6.788;2022-12-05T11:38:44;3.80;99.90
11577;DHT22;5844;51.496;6.788;2022-12-05T11:50:10;3.90;99.90
11577;DHT22;5844;51.496;6.788;2022-12-05T12:03:57;3.50;99.90
11577;DHT22;5844;51.496;6.788;2022-12-05T12:11:27;3.50;99.90
11577;DHT22;5844;51.496;6.788;2022-12-05T12:22:06;3.30;99.90
11577;DHT22;5844;51.496;6.788;2022-12-05T12:25:02;3.20;99.90
11577;DHT22;5844;51.496;6.788;2022-12-05T12:27:47;3.20;99.90
11577;DHT22;5844;51.496;6.788;2022-12-05T12:31:21;3.10;99.90
11577;DHT22;5844;51.496;6.788;2022-12-05T12:34:00;3.00;99.90
11577;DHT22;5844;51.496;6.788;2022-12-05T12:36:40;2.90;99.90
11577;DHT22;5844;51.496;6.788;2022-12-05T12:50:32;2.70;99.90
11577;DHT22;5844;51.496;6.788;2022-12-05T13:04:08;2.90;99.90
11577;DHT22;5844;51.496;6.788;2022-12-05T13:09:14;2.90;99.90
11577;DHT22;5844;51.496;6.788;2022-12-05T13:11:43;2.90;99.90
11577;DHT22;5844;51.496;6.788;2022-12-05T13:14:16;2.90;99.90
11577;DHT22;5844;51.496;6.788;2022-12-05T13:16:46;2.80;99.90
11577;DHT22;5844;51.496;6.788;2022-12-05T13:19:25;2.80;99.90
11577;DHT22;5844;51.496;6.788;2022-12-05T13:21:52;2.80;99.90
11577;DHT22;5844;51.496;6.788;2022-12-05T13:24:25;2.80;99.90
11577;DHT22;5844;51.496;6.788;2022-12-05T13:26:51;2.70;99.90
11577;DHT22;5844;51.496;6.788;2022-12-05T13:29:41;2.60;99.90
11577;DHT22;5844;51.496;6.788;2022-12-05T13:35:16;2.50;99.90
11577;DHT22;5844;51.496;6.788;2022-12-05T13:38:02;2.50;99.90
11577;DHT22;5844;51.496;6.788;2022-12-05T13:40:51;2.50;99.90
11577;DHT22;5844;51.496;6.788;2022-12-05T13:43:41;2.40;99.90
11577;DHT22;5844;51.496;6.788;2022-12-05T13:46:11;2.30;99.90
11577;DHT22;5844;51.496;6.788;2022-12-05T13:48:45;2.20;99.90
11577;DHT22;5844;51.496;6.788;2022-12-05T13:51:24;2.20;99.90
11577;DHT22;5844;51.496;6.788;2022-12-05T13:54:18;2.20;99.90
11577;DHT22;5844;51.496;6.788;2022-12-05T13:56:51;2.10;99.90
11577;DHT22;5844;51.496;6.788;2022-12-05T14:10:09;1.90;99.90
11577;DHT22;5844;51.496;6.788;2022-12-05T14:12:46;1.80;99.90
11577;DHT22;5844;51.496;6.788;2022-12-05T14:18:09;1.80;99.90
11577;DHT22;5844;51.496;6.788;2022-12-05T14:20:46;1.70;99.90
11577;DHT22;5844;51.496;6.788;2022-12-05T14:26:30;1.70;99.90
11577;DHT22;5844;51.496;6.788;2022-12-05T14:34:26;1.60;99.90
11577;DHT22;5844;51.496;6.788;2022-12-05T14:39:41;1.60;99.90
11577;DHT22;5844;51.496;6.788;2022-12-05T14:45:25;1.50;99.90
11577;DHT22;5844;51.496;6.788;2022-12-05T14:47:55;1.50;99.90
11577;DHT22;5844;51.496;6.788;2022-12-05T14:50:33;1.50;99.90
11577;DHT22;5844;51.496;6.788;2022-12-05T14:53:38;1.40;99.90
11577;DHT22;5844;51.496;6.788;2022-12-05T14:56:16;1.40;99.90
11577;DHT22;5844;51.496;6.788;2022-12-05T14:58:56;1.40;99.90
11577;DHT22;5844;51.496;6.788;2022-12-05T15:01:28;1.40;99.90
11577;DHT22;5844;51.496;6.788;2022-12-05T15:04:06;1.40;99.90
11577;DHT22;5844;51.496;6.788;2022-12-05T15:07:08;1.40;99.90
11577;DHT22;5844;51.496;6.788;2022-12-05T15:09:34;1.40;99.90
11577;DHT22;5844;51.496;6.788;2022-12-05T15:12:03;1.40;99.90
11577;DHT22;5844;51.496;6.788;2022-12-05T15:14:35;1.40;99.90
11577;DHT22;5844;51.496;6.788;2022-12-05T15:17:03;1.40;99.90
11577;DHT22;5844;51.496;6.788;2022-12-05T15:19:41;1.40;99.90
11577;DHT22;5844;51.496;6.788;2022-12-05T15:22:08;1.50;99.90
11577;DHT22;5844;51.496;6.788;2022-12-05T15:24:37;1.40;99.90
11577;DHT22;5844;51.496;6.788;2022-12-05T15:27:04;1.40;99.90
11577;DHT22;5844;51.496;6.788;2022-12-05T15:29:31;1.40;99.90
11577;DHT22;5844;51.496;6.788;2022-12-05T15:37:12;1.50;99.90
11577;DHT22;5844;51.496;6.788;2022-12-05T15:42:18;1.60;99.90
11577;DHT22;5844;51.496;6.788;2022-12-05T15:44:44;1.60;99.90
11577;DHT22;5844;51.496;6.788;2022-12-05T15:47:24;1.60;99.90
11577;DHT22;5844;51.496;6.788;2022-12-05T15:49:51;1.70;99.90
11577;DHT22;5844;51.496;6.788;2022-12-05T15:52:28;1.70;99.90
11577;DHT22;5844;51.496;6.788;2022-12-05T15:54:59;1.70;99.90
11577;DHT22;5844;51.496;6.788;2022-12-05T15:57:58;1.70;99.90
11577;DHT22;5844;51.496;6.788;2022-12-05T16:00:28;1.70;99.90
11577;DHT22;5844;51.496;6.788;2022-12-05T16:02:59;1.70;99.90
11577;DHT22;5844;51.496;6.788;2022-12-05T16:05:36;1.70;99.90
11577;DHT22;5844;51.496;6.788;2022-12-05T16:08:04;1.70;99.90
11577;DHT22;5844;51.496;6.788;2022-12-05T16:10:31;1.80;99.90
11577;DHT22;5844;51.496;6.788;2022-12-05T16:13:11;1.70;99.90
11577;DHT22;5844;51.496;6.788;2022-12-05T16:15:41;1.70;99.90
11577;DHT22;5844;51.496;6.788;2022-12-05T16:20:50;1.70;99.90
11577;DHT22;5844;51.496;6.788;2022-12-05T16:23:36;1.70;99.90
11577;DHT22;5844;51.496;6.788;2022-12-05T16:26:20;1.70;99.90
11577;DHT22;5844;51.496;6.788;2022-12-05T16:28:59;1.60;99.90
11577;DHT22;5844;51.496;6.788;2022-12-05T16:31:26;1.70;99.90
11577;DHT22;5844;51.496;6.788;2022-12-05T16:34:18;1.70;99.90
11577;DHT22;5844;51.496;6.788;2022-12-05T16:36:46;1.70;99.90
11577;DHT22;5844;51.496;6.788;2022-12-05T16:39:13;1.70;99.90
11577;DHT22;5844;51.496;6.788;2022-12-05T16:41:39;1.70;99.90
11577;DHT22;5844;51.496;6.788;2022-12-05T16:46:56;1.70;99.90
11577;DHT22;5844;51.496;6.788;2022-12-05T16:49:40;1.70;99.90
11577;DHT22;5844;51.496;6.788;2022-12-05T16:54:34;1.80;99.90
11577;DHT22;5844;51.496;6.788;2022-12-05T16:57:00;1.80;99.90
11577;DHT22;5844;51.496;6.788;2022-12-05T16:59:37;1.80;99.90
11577;DHT22;5844;51.496;6.788;2022-12-05T17:02:09;1.80;99.90
11577;DHT22;5844;51.496;6.788;2022-12-05T17:04:36;1.80;99.90
11577;DHT22;5844;51.496;6.788;2022-12-05T17:07:02;1.80;99.90
11577;DHT22;5844;51.496;6.788;2022-12-05T17:09:27;1.80;99.90
11577;DHT22;5844;51.496;6.788;2022-12-05T17:12:03;1.80;99.90
11577;DHT22;5844;51.496;6.788;2022-12-05T17:14:30;1.80;99.90
11577;DHT22;5844;51.496;6.788;2022-12-05T17:16:55;1.80;99.90
11577;DHT22;5844;51.496;6.788;2022-12-05T17:19:21;1.80;99.90
11577;DHT22;5844;51.496;6.788;2022-12-05T17:21:47;1.80;99.90
11577;DHT22;5844;51.496;6.788;2022-12-05T17:24:15;1.80;99.90
11577;DHT22;5844;51.496;6.788;2022-12-05T17:26:41;1.80;99.90
11577;DHT22;5844;51.496;6.788;2022-12-05T17:29:07;1.80;99.90
11577;DHT22;5844;51.496;6.788;2022-12-05T17:31:34;1.80;99.90
11577;DHT22;5844;51.496;6.788;2022-12-05T17:34:01;1.80;99.90
11577;DHT22;5844;51.496;6.788;2022-12-05T17:36:27;1.80;99.90
11577;DHT22;5844;51.496;6.788;2022-12-05T17:38:53;1.90;99.90
11577;DHT22;5844;51.496;6.788;2022-12-05T17:41:21;1.90;99.90
11577;DHT22;5844;51.496;6.788;2022-12-05T17:43:47;1.90;99.90
11577;DHT22;5844;51.496;6.788;2022-12-05T17:46:18;1.90;99.90
11577;DHT22;5844;51.496;6.788;2022-12-05T17:48:46;2.00;99.90
11577;DHT22;5844;51.496;6.788;2022-12-05T17:51:12;2.00;99.90
11577;DHT22;5844;51.496;6.788;2022-12-05T17:53:39;2.00;99.90
11577;DHT22;5844;51.496;6.788;2022-12-05T17:56:06;2.00;99.90
11577;DHT22;5844;51.496;6.788;2022-12-05T17:58:32;2.00;99.90
11577;DHT22;5844;51.496;6.788;2022-12-05T18:00:58;2.10;99.90
11577;DHT22;5844;51.496;6.788;2022-12-05T18:03:24;2.10;99.90
11577;DHT22;5844;51.496;6.788;2022-12-05T18:05:49;2.10;99.90
11577;DHT22;5844;51.496;6.788;2022-12-05T18:08:15;2.10;99.90
11577;DHT22;5844;51.496;6.788;2022-12-05T18:10:46;2.10;99.90
11577;DHT22;5844;51.496;6.788;2022-12-05T18:13:13;2.10;99.90
11577;DHT22;5844;51.496;6.788;2022-12-05T18:15:39;2.20;99.90
11577;DHT22;5844;51.496;6.788;2022-12-05T18:18:06;2.20;99.90
11577;DHT22;5844;51.496;6.788;2022-12-05T18:20:33;2.20;99.90
11577;DHT22;5844;51.496;6.788;2022-12-05T18:22:59;2.20;99.90
11577;DHT22;5844;51.496;6.788;2022-12-05T18:25:26;2.20;99.90
11577;DHT22;5844;51.496;6.788;2022-12-05T18:27:51;2.20;99.90
11577;DHT22;5844;51.496;6.788;2022-12-05T18:30:17;2.10;99.90
11577;DHT22;5844;51.496;6.788;2022-12-05T18:32:43;2.10;99.90
11577;DHT22;5844;51.496;6.788;2022-12-05T18:35:09;2.10;99.90
11577;DHT22;5844;51.496;6.788;2022-12-05T18:37:38;2.20;99.90
11577;DHT22;5844;51.496;6.788;2022-12-05T18:40:05;2.20;99.90
11577;DHT22;5844;51.496;6.788;2022-12-05T18:42:31;2.20;99.90
11577;DHT22;5844;51.496;6.788;2022-12-05T18:44:57;2.30;99.90
11577;DHT22;5844;51.496;6.788;2022-12-05T18:47:22;2.30;99.90
11577;DHT22;5844;51.496;6.788;2022-12-05T18:49:49;2.30;99.90
11577;DHT22;5844;51.496;6.788;2022-12-05T18:52:15;2.30;99.90
11577;DHT22;5844;51.496;6.788;2022-12-05T18:54:40;2.30;99.90
11577;DHT22;5844;51.496;6.788;2022-12-05T18:57:07;2.30;99.90
11577;DHT22;5844;51.496;6.788;2022-12-05T18:59:32;2.30;99.90
11577;DHT22;5844;51.496;6.788;2022-12-05T19:01:58;2.30;99.90
11577;DHT22;5844;51.496;6.788;2022-12-05T19:04:25;2.30;99.90
11577;DHT22;5844;51.496;6.788;2022-12-05T19:06:53;2.40;99.90
11577;DHT22;5844;51.496;6.788;2022-12-05T19:09:22;2.40;99.90
11577;DHT22;5844;51.496;6.788;2022-12-05T19:11:50;2.40;99.90
11577;DHT22;5844;51.496;6.788;2022-12-05T19:14:17;2.40;99.90
11577;DHT22;5844;51.496;6.788;2022-12-05T19:16:43;2.40;99.90
11577;DHT22;5844;51.496;6.788;2022-12-05T19:19:12;2.40;99.90
11577;DHT22;5844;51.496;6.788;2022-12-05T19:21:38;2.40;99.90
11577;DHT22;5844;51.496;6.788;2022-12-05T19:24:05;2.40;99.90